Time;durP1;ratioP1;P1;durP2;ratioP2;P2;SDS_P1;SDS_P2;PMS_P1;PMS_P2;Temp;Humidity;BMP_temperature;BMP_pressure;BME280_temperature;BME280_humidity;BME280_pressure;Samples;Min_cycle;Max_cycle;Signal;HPM_P1;HPM_P2
2022/07/12 00:01:51;;;;;;;18.17;17.07;;;16.90;99.90;;;;;;4952913;29;20943;-71
2022/07/12 00:04:17;;;;;;;18.33;17.13;;;16.80;99.90;;;;;;4953028;29;20820;-71
2022/07/12 00:06:44;;;;;;;18.33;17.13;;;16.70;99.90;;;;;;4953036;29;20476;-71
2022/07/12 00:09:13;;;;;;;19.50;17.80;;;16.60;99.90;;;;;;4952860;29;20453;-71
2022/07/12 00:11:39;;;;;;;17.87;16.77;;;16.60;99.90;;;;;;4952707;29;20515;-71
2022/07/12 00:14:06;;;;;;;18.70;17.60;;;16.50;99.90;;;;;;4953072;29;20610;-71
2022/07/12 00:16:33;;;;;;;17.87;16.87;;;16.50;99.90;;;;;;4953052;29;20456;-72
2022/07/12 00:19:00;;;;;;;19.70;18.50;;;16.40;99.90;;;;;;4952523;29;20460;-72
2022/07/12 00:21:26;;;;;;;17.37;16.47;;;16.40;99.90;;;;;;4952351;29;20473;-71
2022/07/12 00:23:53;;;;;;;16.40;15.47;;;16.40;99.90;;;;;;4952891;29;20476;-71
2022/07/12 00:26:22;;;;;;;16.00;15.10;;;16.30;99.90;;;;;;4952789;29;20817;-71
2022/07/12 00:28:49;;;;;;;17.67;16.40;;;16.30;99.90;;;;;;4952803;29;20508;-71
2022/07/12 00:31:15;;;;;;;14.83;14.13;;;16.30;99.90;;;;;;4952234;29;20456;-72
2022/07/12 00:33:42;;;;;;;15.70;14.90;;;16.40;99.90;;;;;;4952596;29;20492;-71
2022/07/12 00:36:09;;;;;;;15.67;14.77;;;16.30;99.90;;;;;;4952249;29;20981;-72
2022/07/12 00:38:36;;;;;;;16.17;15.23;;;16.30;99.90;;;;;;4952501;29;20506;-72
2022/07/12 00:41:03;;;;;;;15.40;14.50;;;16.20;99.90;;;;;;4952600;29;20841;-71
2022/07/12 00:43:31;;;;;;;16.40;15.37;;;16.10;99.90;;;;;;4951949;29;20966;-70
2022/07/12 00:45:58;;;;;;;16.73;15.83;;;16.00;99.90;;;;;;4952154;29;20456;-71
2022/07/12 00:48:25;;;;;;;15.90;15.00;;;16.00;99.90;;;;;;4952063;29;20499;-70
2022/07/12 00:50:52;;;;;;;16.23;15.43;;;16.10;99.90;;;;;;4951858;29;20794;-70
2022/07/12 00:53:23;;;;;;;14.97;14.07;;;16.00;99.90;;;;;;4951499;28;20674;-70
2022/07/12 00:55:53;;;;;;;16.00;15.10;;;16.00;99.90;;;;;;4951979;29;20464;-70
2022/07/12 00:58:20;;;;;;;18.47;17.20;;;16.10;99.90;;;;;;4951946;29;20504;-71
2022/07/12 01:00:48;;;;;;;15.10;14.20;;;16.10;99.90;;;;;;4963073;28;20582;-70
2022/07/12 01:03:15;;;;;;;15.07;14.30;;;16.20;99.90;;;;;;4971252;28;20458;-70
2022/07/12 01:05:41;;;;;;;15.17;14.37;;;16.30;99.90;;;;;;4970937;28;20542;-71
2022/07/12 01:08:09;;;;;;;15.33;14.53;;;16.30;99.90;;;;;;4970784;28;20460;-70
2022/07/12 01:10:37;;;;;;;16.97;15.97;;;16.50;99.90;;;;;;4971164;28;20452;-70
2022/07/12 01:13:04;;;;;;;17.23;16.33;;;16.50;99.90;;;;;;4971451;28;20459;-71
2022/07/12 01:15:31;;;;;;;17.13;16.10;;;16.60;99.90;;;;;;4970847;28;20838;-70
2022/07/12 01:18:00;;;;;;;16.17;14.97;;;16.60;99.90;;;;;;4970857;28;20455;-71
2022/07/12 01:20:27;;;;;;;16.50;15.57;;;16.70;99.90;;;;;;4970691;28;20527;-71
2022/07/12 01:22:58;;;;;;;17.60;16.60;;;16.70;99.90;;;;;;4970348;28;20502;-71
2022/07/12 01:25:25;;;;;;;19.53;17.87;;;16.70;99.90;;;;;;4970916;28;20460;-70
2022/07/12 01:27:52;;;;;;;17.20;16.20;;;16.70;99.90;;;;;;4970882;28;20515;-70
2022/07/12 01:30:19;;;;;;;16.13;15.30;;;16.60;99.90;;;;;;4970996;28;20451;-70
2022/07/12 01:32:45;;;;;;;17.20;16.07;;;16.70;99.90;;;;;;4970992;28;20462;-70
2022/07/12 01:35:13;;;;;;;17.50;16.30;;;16.70;99.90;;;;;;4970453;28;20491;-70
2022/07/12 01:37:41;;;;;;;17.03;16.00;;;16.70;99.90;;;;;;4970699;28;20459;-70
2022/07/12 01:40:11;;;;;;;16.93;16.03;;;16.70;99.90;;;;;;4970632;28;20460;-70
2022/07/12 01:42:39;;;;;;;18.07;16.93;;;16.60;99.90;;;;;;4970486;28;20822;-70
2022/07/12 01:45:08;;;;;;;18.30;17.20;;;16.60;99.90;;;;;;4971113;28;20448;-70
2022/07/12 01:47:36;;;;;;;18.00;16.77;;;16.60;99.90;;;;;;4970562;28;20460;-70
2022/07/12 01:50:06;;;;;;;18.83;17.03;;;16.50;99.90;;;;;;4970535;28;20901;-70
2022/07/12 01:52:34;;;;;;;19.40;17.90;;;16.40;99.90;;;;;;4970978;28;20499;-70
2022/07/12 01:55:01;;;;;;;18.93;17.67;;;16.30;99.90;;;;;;4970487;28;20487;-70
2022/07/12 01:57:29;;;;;;;18.10;17.10;;;16.30;99.90;;;;;;4970248;28;20543;-70
2022/07/12 01:59:56;;;;;;;18.80;17.30;;;16.20;99.90;;;;;;4970384;28;20514;-69
2022/07/12 02:02:26;;;;;;;18.97;17.70;;;16.10;99.90;;;;;;4970499;28;20542;-69
2022/07/12 02:04:53;;;;;;;19.17;17.67;;;16.10;99.90;;;;;;4971310;28;20479;-70
2022/07/12 02:07:20;;;;;;;18.97;17.53;;;16.00;99.90;;;;;;4974495;28;20727;-71
2022/07/12 02:09:47;;;;;;;27.57;17.80;;;16.00;99.90;;;;;;4966380;28;20474;-70
2022/07/12 02:12:13;;;;;;;18.87;17.60;;;15.90;99.90;;;;;;4974138;28;20455;-71
2022/07/12 02:14:41;;;;;;;17.90;16.73;;;15.90;99.90;;;;;;4974075;28;20479;-72
2022/07/12 02:17:08;;;;;;;18.97;17.43;;;15.80;99.90;;;;;;4974361;28;20455;-71
2022/07/12 02:19:35;;;;;;;18.80;17.50;;;15.80;99.90;;;;;;4973972;28;20483;-71
2022/07/12 02:22:02;;;;;;;18.13;16.77;;;15.80;99.90;;;;;;4974016;28;20565;-70
2022/07/12 02:24:28;;;;;;;20.40;18.60;;;15.70;99.90;;;;;;4973973;28;20965;-70
2022/07/12 02:26:55;;;;;;;17.20;16.10;;;15.70;99.90;;;;;;4973965;28;20452;-71
2022/07/12 02:29:22;;;;;;;18.30;16.80;;;15.70;99.90;;;;;;4973823;28;20934;-70
2022/07/12 02:31:50;;;;;;;17.97;16.83;;;15.70;99.90;;;;;;4974081;28;20525;-71
2022/07/12 02:34:16;;;;;;;18.13;17.03;;;15.60;99.90;;;;;;4973658;28;20487;-71
2022/07/12 02:36:43;;;;;;;18.83;17.53;;;15.60;99.90;;;;;;4973809;28;20456;-70
2022/07/12 02:39:11;;;;;;;19.40;18.00;;;15.60;99.90;;;;;;4973945;28;20463;-70
2022/07/12 02:41:37;;;;;;;18.37;17.33;;;15.50;99.90;;;;;;4973625;28;20459;-69
2022/07/12 02:44:05;;;;;;;18.37;17.37;;;15.40;99.90;;;;;;4973694;28;20547;-70
2022/07/12 02:46:31;;;;;;;18.57;17.37;;;15.50;99.90;;;;;;4973710;28;20501;-70
2022/07/12 02:48:59;;;;;;;18.67;17.37;;;15.50;99.90;;;;;;4973591;28;21066;-70
2022/07/12 02:51:26;;;;;;;18.90;17.77;;;15.50;99.90;;;;;;4973410;28;20458;-70
2022/07/12 02:53:53;;;;;;;17.33;16.27;;;15.50;99.90;;;;;;4973729;28;20496;-69
2022/07/12 02:56:19;;;;;;;17.03;16.10;;;15.50;99.90;;;;;;4973400;28;20822;-69
2022/07/12 02:58:46;;;;;;;18.57;17.40;;;15.40;99.90;;;;;;4973430;28;21218;-70
2022/07/12 03:01:14;;;;;;;18.90;17.40;;;15.50;99.90;;;;;;4973449;28;20443;-69
2022/07/12 03:03:41;;;;;;;17.33;16.20;;;15.40;99.90;;;;;;4973077;28;20885;-69
2022/07/12 03:06:09;;;;;;;20.10;18.50;;;15.50;99.90;;;;;;4970188;28;20487;-69
2022/07/12 03:08:35;;;;;;;21.87;20.37;;;15.30;99.90;;;;;;4954298;29;20938;-69
2022/07/12 03:11:02;;;;;;;18.90;17.90;;;15.20;99.90;;;;;;4954247;29;20448;-69
2022/07/12 03:13:29;;;;;;;20.13;18.33;;;15.10;99.90;;;;;;4954083;29;21018;-69
2022/07/12 03:15:56;;;;;;;21.53;20.13;;;15.00;99.90;;;;;;4954027;28;20923;-68
2022/07/12 03:18:23;;;;;;;20.90;19.47;;;14.90;99.90;;;;;;4953362;29;20927;-69
2022/07/12 03:20:49;;;;;;;19.23;17.83;;;14.90;99.90;;;;;;4953794;29;20527;-69
2022/07/12 03:23:17;;;;;;;19.93;18.73;;;14.90;99.90;;;;;;4953892;29;20488;-69
2022/07/12 03:25:45;;;;;;;21.03;19.67;;;14.80;99.90;;;;;;4954294;29;20486;-68
2022/07/12 03:28:12;;;;;;;19.60;18.40;;;14.80;99.90;;;;;;4953789;29;20460;-69
2022/07/12 03:30:39;;;;;;;21.07;19.67;;;14.80;99.90;;;;;;4953816;29;20492;-68
2022/07/12 03:33:06;;;;;;;19.53;18.33;;;14.80;99.90;;;;;;4968175;28;20515;-68
2022/07/12 03:35:32;;;;;;;18.87;17.53;;;14.80;99.90;;;;;;4972840;28;20772;-69
2022/07/12 03:37:59;;;;;;;18.83;17.43;;;14.80;99.90;;;;;;4972772;28;20973;-69
2022/07/12 03:40:27;;;;;;;18.63;17.43;;;14.90;99.90;;;;;;4972812;28;20460;-68
2022/07/12 03:42:54;;;;;;;19.03;17.93;;;14.80;99.90;;;;;;4972976;28;20455;-69
2022/07/12 03:45:20;;;;;;;19.37;17.90;;;14.80;99.90;;;;;;4972867;28;20502;-69
2022/07/12 03:47:49;;;;;;;19.50;18.20;;;14.80;99.90;;;;;;4972769;28;20463;-69
2022/07/12 03:50:15;;;;;;;18.70;17.60;;;14.80;99.90;;;;;;4972507;28;20447;-68
2022/07/12 03:52:43;;;;;;;20.00;18.50;;;14.90;99.90;;;;;;4972800;28;20447;-69
2022/07/12 03:55:11;;;;;;;19.23;18.03;;;14.90;99.90;;;;;;4972447;28;20483;-71
2022/07/12 03:57:39;;;;;;;17.73;16.73;;;14.90;99.90;;;;;;4972289;28;20543;-70
2022/07/12 04:00:09;;;;;;;17.93;16.93;;;14.90;99.90;;;;;;4972214;28;20443;-70
2022/07/12 04:02:37;;;;;;;19.27;18.17;;;15.00;99.90;;;;;;4972350;28;20466;-70
2022/07/12 04:05:04;;;;;;;18.40;17.40;;;15.10;99.90;;;;;;4972136;28;20510;-71
2022/07/12 04:07:31;;;;;;;17.80;16.80;;;15.10;99.90;;;;;;4972413;28;20451;-71
2022/07/12 04:09:58;;;;;;;20.03;18.20;;;15.10;99.90;;;;;;4971906;28;20513;-71
2022/07/12 04:12:24;;;;;;;19.27;18.00;;;15.10;99.90;;;;;;4971915;28;20455;-71
2022/07/12 04:14:52;;;;;;;19.13;18.03;;;15.20;99.90;;;;;;4971959;28;20488;-71
2022/07/12 04:17:19;;;;;;;19.83;18.17;;;15.30;99.90;;;;;;4972137;28;20452;-71
2022/07/12 04:19:46;;;;;;;20.03;18.83;;;15.40;99.90;;;;;;4971343;28;20456;-71
2022/07/12 04:22:13;;;;;;;19.07;17.97;;;15.50;99.90;;;;;;4971795;28;20495;-71
2022/07/12 04:24:39;;;;;;;19.90;18.47;;;15.70;99.90;;;;;;4971678;28;20459;-71
2022/07/12 04:27:06;;;;;;;21.47;19.93;;;15.70;99.90;;;;;;4971590;28;20451;-71
2022/07/12 04:29:33;;;;;;;23.57;21.40;;;15.80;99.90;;;;;;4971154;28;20463;-70
2022/07/12 04:32:01;;;;;;;19.37;18.00;;;15.90;99.90;;;;;;4971588;28;20531;-71
2022/07/12 04:34:27;;;;;;;19.60;18.13;;;15.90;99.90;;;;;;4971543;28;20559;-71
2022/07/12 04:36:54;;;;;;;21.13;19.30;;;16.10;99.90;;;;;;4971749;28;20937;-71
2022/07/12 04:39:21;;;;;;;19.27;17.77;;;16.40;99.90;;;;;;4971576;28;20458;-71
2022/07/12 04:41:48;;;;;;;19.67;18.17;;;16.80;99.90;;;;;;4964059;28;21061;-71
2022/07/12 04:44:14;;;;;;;17.43;16.30;;;17.20;99.90;;;;;;4971366;28;20826;-71
2022/07/12 04:46:41;;;;;;;18.07;16.80;;;17.70;99.90;;;;;;4971434;28;20484;-71
2022/07/12 04:49:09;;;;;;;17.93;16.70;;;18.10;99.90;;;;;;4971369;28;20447;-70
2022/07/12 04:51:36;;;;;;;17.67;16.30;;;18.10;99.90;;;;;;4971735;28;20510;-71
2022/07/12 04:54:03;;;;;;;18.40;17.00;;;17.90;99.90;;;;;;4971327;28;20530;-71
2022/07/12 04:56:30;;;;;;;18.80;17.70;;;18.00;99.90;;;;;;4971186;28;20514;-71
2022/07/12 04:58:56;;;;;;;17.40;16.50;;;18.30;99.90;;;;;;4971598;28;20459;-71
2022/07/12 05:01:23;;;;;;;18.57;17.37;;;18.60;99.90;;;;;;4970969;28;20462;-71
2022/07/12 05:03:50;;;;;;;21.63;20.07;;;18.90;99.90;;;;;;4971382;28;20460;-71
2022/07/12 05:06:18;;;;;;;19.87;18.37;;;19.30;99.90;;;;;;4966570;28;20471;-72
2022/07/12 05:08:45;;;;;;;17.90;16.90;;;19.80;99.90;;;;;;4951678;29;20464;-71
2022/07/12 05:11:11;;;;;;;18.90;17.37;;;20.10;99.90;;;;;;4951847;29;20459;-72
2022/07/12 05:13:38;;;;;;;18.47;17.07;;;20.40;99.90;;;;;;4951785;29;20464;-72
2022/07/12 05:16:07;;;;;;;19.10;17.87;;;20.70;99.90;;;;;;4951793;29;20488;-73
2022/07/12 05:18:34;;;;;;;19.00;17.73;;;21.00;99.90;;;;;;4952260;29;20452;-73
2022/07/12 05:21:01;;;;;;;19.20;17.77;;;21.20;99.90;;;;;;4951759;29;20500;-73
2022/07/12 05:23:29;;;;;;;18.67;17.50;;;21.40;99.90;;;;;;4951799;29;20625;-72
2022/07/12 05:25:55;;;;;;;18.83;17.63;;;21.60;99.90;;;;;;4952100;29;21173;-70
2022/07/12 05:28:22;;;;;;;20.50;19.20;;;22.00;99.90;;;;;;4951838;29;20467;-72
2022/07/12 05:30:49;;;;;;;19.80;18.60;;;22.20;99.90;;;;;;4951792;29;20799;-72
2022/07/12 05:33:16;;;;;;;19.53;17.97;;;22.50;99.90;;;;;;4951898;29;20487;-73
2022/07/12 05:35:42;;;;;;;20.00;18.60;;;22.90;99.90;;;;;;4951749;29;20499;-70
2022/07/12 05:38:09;;;;;;;20.67;19.37;;;23.00;99.90;;;;;;4951600;29;20464;-72
2022/07/12 05:40:37;;;;;;;19.90;18.40;;;23.10;99.90;;;;;;4951643;28;20777;-71
2022/07/12 05:43:04;;;;;;;19.17;18.07;;;22.90;99.90;;;;;;4955428;28;20461;-71
2022/07/12 05:45:31;;;;;;;19.80;18.47;;;22.90;99.90;;;;;;4968022;28;20466;-71
2022/07/12 05:47:58;;;;;;;20.83;19.53;;;23.30;99.90;;;;;;4951317;29;20460;-71
2022/07/12 05:50:24;;;;;;;19.40;18.37;;;23.90;99.90;;;;;;4946180;29;20446;-71
2022/07/12 05:55:37;;;;;;;19.20;17.77;;;24.50;99.50;;;;;;4932137;29;20492;-71
2022/07/12 05:58:04;;;;;;;19.80;18.40;;;24.80;98.40;;;;;;4932101;29;20450;-70
2022/07/12 06:00:32;;;;;;;18.93;17.83;;;24.90;97.90;;;;;;4966233;28;20506;-71
2022/07/12 06:02:58;;;;;;;19.43;18.27;;;25.00;98.00;;;;;;4970273;28;20455;-71
2022/07/12 06:05:25;;;;;;;19.47;18.17;;;25.20;97.40;;;;;;4970468;28;20522;-71
2022/07/12 06:07:52;;;;;;;19.97;18.50;;;25.60;96.60;;;;;;4970311;28;20764;-71
2022/07/12 06:10:18;;;;;;;18.40;17.30;;;25.70;95.90;;;;;;4970503;28;20987;-71
2022/07/12 06:12:46;;;;;;;18.00;16.93;;;26.00;95.10;;;;;;4970478;28;20487;-73
2022/07/12 06:15:13;;;;;;;18.23;16.77;;;26.60;93.40;;;;;;4970522;28;20455;-73
2022/07/12 06:17:40;;;;;;;18.63;17.53;;;26.70;93.70;;;;;;4951932;28;20558;-73
2022/07/12 06:20:08;;;;;;;17.40;16.37;;;26.20;93.80;;;;;;4951410;29;20480;-73
2022/07/12 06:22:34;;;;;;;18.53;16.83;;;26.40;93.90;;;;;;4951464;29;20535;-73
2022/07/12 06:25:01;;;;;;;17.43;16.20;;;26.60;93.40;;;;;;4951363;29;20456;-72
2022/07/12 06:27:28;;;;;;;18.43;16.90;;;26.60;93.40;;;;;;4951020;29;20467;-71
2022/07/12 06:29:56;;;;;;;17.73;16.80;;;27.10;92.60;;;;;;4951329;29;20456;-72
2022/07/12 06:32:22;;;;;;;15.53;14.80;;;27.30;92.20;;;;;;4951256;29;20456;-72
2022/07/12 06:34:49;;;;;;;16.20;15.30;;;27.40;91.10;;;;;;4951268;29;20460;-72
2022/07/12 06:37:16;;;;;;;14.43;13.83;;;27.40;91.10;;;;;;4951030;29;20502;-73
2022/07/12 06:39:43;;;;;;;15.00;14.30;;;27.70;90.00;;;;;;4951109;29;20460;-72
2022/07/12 06:42:10;;;;;;;14.70;13.90;;;27.80;89.60;;;;;;4950956;29;20452;-73
2022/07/12 06:44:37;;;;;;;14.73;14.03;;;27.90;89.10;;;;;;4950915;29;20829;-74
2022/07/12 06:47:05;;;;;;;14.00;13.50;;;28.60;86.10;;;;;;4951075;29;20457;-72
2022/07/12 06:49:32;;;;;;;13.87;13.37;;;28.90;83.80;;;;;;4951070;28;20832;-73
2022/07/12 06:51:59;;;;;;;13.60;13.00;;;28.90;83.00;;;;;;4971369;28;20455;-73
2022/07/12 06:54:25;;;;;;;12.73;12.23;;;28.70;82.50;;;;;;4974532;28;20455;-73
2022/07/12 06:56:52;;;;;;;14.50;13.73;;;29.00;81.90;;;;;;4973854;28;20968;-72
2022/07/12 06:59:19;;;;;;;14.40;13.80;;;28.80;82.80;;;;;;4973832;28;20466;-72
2022/07/12 07:01:45;;;;;;;14.13;13.50;;;29.20;81.40;;;;;;4973613;28;20458;-72
2022/07/12 07:04:13;;;;;;;13.60;13.00;;;29.60;79.90;;;;;;4973547;28;20826;-73
2022/07/12 07:06:40;;;;;;;15.27;14.53;;;29.30;79.40;;;;;;4973910;28;20455;-73
2022/07/12 07:09:07;;;;;;;14.30;13.50;;;29.70;79.30;;;;;;4973869;28;20860;-73
2022/07/12 07:11:35;;;;;;;13.57;12.97;;;29.30;78.70;;;;;;4973595;28;20455;-73
2022/07/12 07:14:01;;;;;;;13.70;13.20;;;29.40;79.20;;;;;;4973717;28;20562;-73
2022/07/12 07:16:28;;;;;;;13.93;13.43;;;29.90;78.10;;;;;;4973458;28;20570;-73
2022/07/12 07:18:55;;;;;;;14.10;13.50;;;30.10;76.50;;;;;;4973419;28;20455;-73
2022/07/12 07:21:23;;;;;;;13.00;12.50;;;30.30;76.20;;;;;;4960459;28;20555;-73
2022/07/12 07:23:50;;;;;;;13.27;12.77;;;31.10;73.50;;;;;;4953769;29;20492;-73
2022/07/12 07:26:17;;;;;;;12.70;12.20;;;31.00;72.50;;;;;;4930766;29;20529;-73
2022/07/12 07:31:28;;;;;;;13.83;12.93;;;31.40;69.80;;;;;;4947982;28;20986;-73
2022/07/12 07:33:55;;;;;;;12.90;12.40;;;31.70;68.40;;;;;;4956050;28;20534;-73
2022/07/12 07:36:23;;;;;;;12.23;11.80;;;31.70;66.20;;;;;;4953840;29;20480;-74
2022/07/12 07:38:49;;;;;;;13.10;12.60;;;32.20;65.60;;;;;;4954116;29;20453;-73
2022/07/12 07:41:16;;;;;;;13.27;12.77;;;31.80;65.10;;;;;;4953506;29;21063;-73
2022/07/12 07:43:43;;;;;;;13.00;12.60;;;31.60;66.60;;;;;;4953182;29;20519;-72
2022/07/12 07:46:10;;;;;;;13.20;12.80;;;31.10;65.00;;;;;;4937445;29;20813;-72
2022/07/12 07:48:37;;;;;;;13.37;12.87;;;30.90;64.80;;;;;;4933516;29;20460;-72
2022/07/12 07:51:03;;;;;;;12.40;12.00;;;30.70;64.60;;;;;;4933950;29;20552;-72
2022/07/12 07:53:31;;;;;;;11.63;11.13;;;29.50;67.60;;;;;;4933629;29;20461;-72
2022/07/12 07:55:58;;;;;;;12.33;11.93;;;28.30;71.50;;;;;;4933458;29;20904;-72
2022/07/12 07:58:25;;;;;;;12.30;11.90;;;28.00;71.10;;;;;;4933834;29;21027;-72
2022/07/12 08:00:52;;;;;;;11.80;11.27;;;27.60;73.60;;;;;;4933447;29;20467;-72
2022/07/12 08:03:20;;;;;;;12.60;12.10;;;28.40;72.50;;;;;;4933935;29;20468;-72
2022/07/12 08:05:47;;;;;;;12.87;12.47;;;29.10;69.10;;;;;;4933773;29;20462;-72
2022/07/12 08:08:14;;;;;;;13.73;13.13;;;29.90;67.50;;;;;;4933788;29;20825;-72
2022/07/12 08:10:42;;;;;;;12.27;11.80;;;30.10;67.10;;;;;;4938346;28;20472;-71
2022/07/12 08:13:09;;;;;;;13.17;12.77;;;28.90;90.20;;;;;;4950977;29;20943;-72
2022/07/12 08:15:37;;;;;;;12.80;12.40;;;29.10;68.70;;;;;;4950800;29;20456;-72
2022/07/12 08:18:04;;;;;;;13.03;12.53;;;;;;;;;;4952924;29;20453;-72
2022/07/12 08:20:31;;;;;;;12.90;12.50;;;29.70;65.90;;;;;;4950825;29;20481;-72
2022/07/12 08:22:58;;;;;;;12.93;12.50;;;29.90;65.90;;;;;;4952086;29;20970;-72
2022/07/12 08:25:25;;;;;;;13.60;13.10;;;29.50;67.20;;;;;;4952028;29;20460;-73
2022/07/12 08:27:53;;;;;;;12.93;12.53;;;30.20;66.30;;;;;;4952466;29;20508;-72
2022/07/12 08:30:19;;;;;;;13.30;12.80;;;30.60;64.70;;;;;;4952320;29;20955;-73
2022/07/12 08:32:46;;;;;;;12.80;12.40;;;30.50;64.80;;;;;;4949854;29;20471;-73
2022/07/12 08:35:14;;;;;;;13.50;13.03;;;30.80;64.00;;;;;;4951426;29;20472;-73
2022/07/12 08:37:41;;;;;;;12.97;12.57;;;31.50;61.80;;;;;;4951733;29;20905;-73
2022/07/12 08:40:09;;;;;;;13.00;12.60;;;32.10;60.30;;;;;;4951942;29;20457;-72
2022/07/12 08:42:35;;;;;;;13.60;13.10;;;32.60;59.10;;;;;;4952280;29;20858;-73
2022/07/12 08:45:04;;;;;;;13.17;12.77;;;32.80;57.50;;;;;;4952164;29;20547;-73
2022/07/12 08:47:31;;;;;;;14.43;13.83;;;32.80;57.80;;;;;;4951722;29;20461;-72
2022/07/12 08:50:13;;;;;;;14.00;13.30;;;32.90;57.60;;;;;;4951606;29;20456;-74
2022/07/12 08:52:42;;;;;;;13.00;12.60;;;33.00;57.00;;;;;;4949671;29;20464;-72
2022/07/12 08:55:25;;;;;;;13.10;12.70;;;33.30;55.70;;;;;;4951549;29;20540;-72
2022/07/12 08:57:54;;;;;;;13.50;13.10;;;33.70;55.60;;;;;;4951923;29;20556;-72
2022/07/12 09:00:23;;;;;;;13.40;13.00;;;34.00;54.70;;;;;;4951835;29;20866;-72
2022/07/12 09:02:51;;;;;;;13.97;13.57;;;34.40;53.60;;;;;;4951659;29;20464;-71
2022/07/12 09:05:21;;;;;;;13.70;13.30;;;35.00;52.40;;;;;;4951437;29;20456;-72
2022/07/12 09:07:47;;;;;;;13.70;13.20;;;32.60;54.40;;;;;;4951432;29;20457;-72
2022/07/12 09:10:15;;;;;;;13.60;13.10;;;31.20;56.70;;;;;;4951258;29;20452;-72
2022/07/12 09:12:42;;;;;;;12.47;12.07;;;30.40;58.70;;;;;;4951425;29;20659;-72
2022/07/12 09:15:14;;;;;;;12.67;12.27;;;30.80;58.40;;;;;;4950933;28;20919;-72
2022/07/12 09:17:54;;;;;;;13.73;13.23;;;31.00;57.20;;;;;;4950944;29;20499;-72
2022/07/12 09:20:21;;;;;;;14.47;13.83;;;31.70;56.40;;;;;;4951106;29;20476;-73
2022/07/12 09:22:56;;;;;;;14.03;13.53;;;33.20;54.40;;;;;;4951153;29;20484;-74
2022/07/12 09:25:23;;;;;;;13.53;13.13;;;33.50;52.90;;;;;;4951584;29;20464;-72
2022/07/12 09:27:55;;;;;;;13.90;13.40;;;33.50;52.70;;;;;;4951603;29;20515;-72
2022/07/12 09:30:23;;;;;;;13.70;13.10;;;33.40;52.90;;;;;;4951557;29;20947;-73
2022/07/12 09:36:09;;;;;;;13.50;13.00;;;33.10;52.90;;;;;;4951422;29;20933;-73
2022/07/12 09:38:36;;;;;;;13.53;13.03;;;32.30;53.60;;;;;;4951202;29;20543;-72
2022/07/12 09:41:04;;;;;;;12.50;12.10;;;32.40;54.10;;;;;;4951213;29;20511;-72
2022/07/12 09:43:31;;;;;;;12.93;12.43;;;33.00;52.50;;;;;;4951009;29;20457;-72
2022/07/12 09:45:59;;;;;;;13.80;13.37;;;33.00;52.30;;;;;;4950894;29;20805;-72
2022/07/12 09:48:29;;;;;;;13.23;12.83;;;33.40;52.20;;;;;;4950865;29;20445;-72
2022/07/12 09:50:58;;;;;;;13.13;12.63;;;33.60;51.10;;;;;;4951183;29;20452;-72
2022/07/12 09:53:29;;;;;;;12.97;12.57;;;34.40;50.00;;;;;;4950989;29;20480;-72
2022/07/12 09:55:56;;;;;;;13.20;12.80;;;33.90;50.70;;;;;;4950996;29;20720;-72
2022/07/12 09:58:31;;;;;;;13.20;12.80;;;33.30;51.20;;;;;;4950819;29;20902;-72
2022/07/12 10:01:00;;;;;;;13.77;13.27;;;33.30;51.30;;;;;;4950770;29;20456;-72
2022/07/12 10:03:31;;;;;;;12.90;12.30;;;32.60;52.10;;;;;;4950819;29;20503;-72
2022/07/12 10:06:01;;;;;;;13.87;13.37;;;33.00;52.00;;;;;;4951183;29;20921;-72
2022/07/12 10:08:28;;;;;;;13.03;12.63;;;33.20;51.70;;;;;;4951193;29;21119;-72
2022/07/12 10:10:55;;;;;;;13.20;12.80;;;32.70;51.30;;;;;;4951148;29;20911;-72
2022/07/12 10:13:22;;;;;;;13.67;13.27;;;31.60;53.00;;;;;;4951022;29;20849;-72
2022/07/12 10:15:51;;;;;;;14.10;13.40;;;32.40;52.30;;;;;;4951388;29;20831;-71
2022/07/12 10:18:21;;;;;;;14.43;13.70;;;32.10;52.40;;;;;;4950982;29;20998;-71
2022/07/12 10:20:50;;;;;;;13.93;13.53;;;31.30;53.50;;;;;;4951219;29;20488;-71
2022/07/12 10:23:36;;;;;;;13.70;13.20;;;31.20;54.10;;;;;;4951065;29;20940;-72
2022/07/12 10:26:24;;;;;;;14.10;13.70;;;31.70;54.10;;;;;;4951161;28;20452;-72
2022/07/12 10:29:02;;;;;;;13.33;12.90;;;32.30;52.50;;;;;;4954956;29;20444;-71
2022/07/12 10:31:33;;;;;;;14.40;13.90;;;32.50;52.00;;;;;;4954563;29;20463;-71
2022/07/12 10:34:14;;;;;;;14.13;13.63;;;33.70;50.70;;;;;;4954885;29;20448;-72
2022/07/12 10:37:11;;;;;;;14.50;13.90;;;34.40;49.70;;;;;;4954695;29;20825;-72
2022/07/12 10:39:38;;;;;;;14.47;14.00;;;34.70;49.30;;;;;;4954633;29;20455;-72
2022/07/12 10:42:15;;;;;;;14.63;13.93;;;35.20;47.50;;;;;;4954906;29;20488;-72
2022/07/12 10:44:44;;;;;;;14.20;13.80;;;33.50;49.30;;;;;;4954683;29;20543;-71
2022/07/12 10:47:13;;;;;;;14.00;13.60;;;33.50;50.70;;;;;;4954441;29;20456;-72
2022/07/12 10:49:47;;;;;;;14.50;14.00;;;34.30;49.50;;;;;;4954593;29;20539;-72
2022/07/12 10:52:16;;;;;;;13.70;13.30;;;34.80;48.60;;;;;;4954585;29;20460;-72
2022/07/12 10:54:50;;;;;;;13.73;13.23;;;35.10;48.20;;;;;;4954350;29;20456;-71
2022/07/12 10:57:17;;;;;;;14.40;14.00;;;35.40;48.00;;;;;;4954422;29;20491;-71
2022/07/12 10:59:50;;;;;;;15.10;14.60;;;36.00;46.60;;;;;;4954420;29;20456;-71
2022/07/12 11:02:18;;;;;;;14.57;14.07;;;36.60;45.30;;;;;;4954460;29;21026;-71
2022/07/12 11:04:48;;;;;;;14.30;13.70;;;35.50;45.90;;;;;;4954244;29;20983;-71
2022/07/12 11:07:19;;;;;;;14.93;14.10;;;34.40;47.00;;;;;;4954397;29;20476;-71
2022/07/12 11:09:45;;;;;;;14.23;13.83;;;33.80;48.80;;;;;;4954184;29;20575;-71
2022/07/12 11:12:16;;;;;;;14.80;14.30;;;34.30;48.50;;;;;;4954133;29;20464;-71
2022/07/12 11:14:46;;;;;;;14.00;13.50;;;34.70;47.90;;;;;;4954121;29;20459;-72
2022/07/12 11:17:13;;;;;;;13.73;13.33;;;34.30;49.30;;;;;;4953975;29;20568;-72
2022/07/12 11:19:40;;;;;;;13.83;13.33;;;34.50;48.30;;;;;;4953884;29;20457;-72
2022/07/12 11:22:07;;;;;;;13.87;13.17;;;34.70;47.70;;;;;;4953833;29;20573;-71
2022/07/12 11:24:35;;;;;;;15.10;14.20;;;34.50;47.40;;;;;;4954277;29;20461;-71
2022/07/12 11:27:04;;;;;;;14.10;13.70;;;33.50;48.50;;;;;;4953989;29;20448;-72
2022/07/12 11:29:31;;;;;;;14.00;13.60;;;33.90;49.00;;;;;;4953979;29;20480;-71
2022/07/12 11:32:03;;;;;;;13.17;12.77;;;34.70;47.10;;;;;;4953835;29;20517;-71
2022/07/12 11:34:30;;;;;;;13.80;13.40;;;34.70;47.00;;;;;;4953828;29;20461;-72
2022/07/12 11:37:00;;;;;;;13.67;13.27;;;34.40;47.40;;;;;;4953415;28;20461;-71
2022/07/12 11:39:35;;;;;;;14.90;14.40;;;34.20;48.10;;;;;;4953248;29;20448;-71
2022/07/12 11:42:04;;;;;;;14.70;14.10;;;33.90;48.20;;;;;;4953563;29;20452;-71
2022/07/12 11:44:44;;;;;;;13.53;13.13;;;33.30;49.30;;;;;;4953607;29;20819;-71
2022/07/12 11:47:11;;;;;;;14.20;13.70;;;33.40;49.30;;;;;;4953371;29;20456;-71
2022/07/12 11:49:42;;;;;;;13.80;13.40;;;33.80;48.80;;;;;;4953494;29;20863;-72
2022/07/12 11:52:09;;;;;;;14.10;13.60;;;34.30;47.80;;;;;;4953552;29;20512;-71
2022/07/12 11:54:37;;;;;;;13.90;13.50;;;34.10;48.40;;;;;;4953407;29;20453;-71
2022/07/12 11:57:08;;;;;;;14.60;13.90;;;34.80;46.70;;;;;;4953249;29;20552;-72
2022/07/12 11:59:35;;;;;;;13.30;12.73;;;35.20;46.00;;;;;;4953073;29;20452;-71
2022/07/12 12:02:07;;;;;;;14.10;13.40;;;34.60;46.50;;;;;;4953344;29;20452;-71
2022/07/12 12:04:43;;;;;;;14.07;13.50;;;33.90;47.50;;;;;;4953254;29;20464;-71
2022/07/12 12:07:15;;;;;;;14.20;13.70;;;34.30;47.40;;;;;;4952977;29;20957;-72
2022/07/12 12:10:04;;;;;;;14.40;13.90;;;34.20;46.50;;;;;;4953028;29;20467;-71
2022/07/12 12:12:42;;;;;;;13.60;13.17;;;33.00;47.50;;;;;;4952864;29;20512;-71
2022/07/12 12:15:12;;;;;;;14.10;13.50;;;32.70;48.40;;;;;;4952890;29;20973;-71
2022/07/12 12:17:45;;;;;;;13.67;13.27;;;33.00;48.40;;;;;;4952725;29;20489;-71
2022/07/12 12:20:14;;;;;;;13.70;13.30;;;32.80;48.90;;;;;;4953040;29;20472;-71
2022/07/12 12:22:40;;;;;;;13.67;13.10;;;32.70;49.30;;;;;;4952562;29;20651;-70
2022/07/12 12:25:13;;;;;;;13.33;12.93;;;33.00;48.20;;;;;;4941117;28;20469;-72
2022/07/12 12:27:47;;;;;;;13.47;13.07;;;33.50;48.00;;;;;;4956826;28;20440;-71
2022/07/12 12:30:14;;;;;;;13.17;12.67;;;33.70;47.40;;;;;;4971954;28;20451;-71
2022/07/12 12:32:45;;;;;;;12.63;12.23;;;33.60;47.60;;;;;;4961132;28;20516;-71
2022/07/12 12:35:13;;;;;;;13.30;12.80;;;33.10;47.80;;;;;;4952334;29;20883;-72
2022/07/12 12:37:40;;;;;;;13.40;13.00;;;33.40;47.50;;;;;;4952503;29;20638;-71
2022/07/12 12:40:10;;;;;;;13.20;12.80;;;33.60;47.50;;;;;;4954120;28;20543;-71
2022/07/12 12:42:37;;;;;;;13.13;12.73;;;33.60;47.90;;;;;;4971637;28;20451;-73